createdAt,value
2023-02-28T00:01:28.627Z,-1.40
2023-02-28T00:03:56.904Z,-1.30
2023-02-28T00:06:25.514Z,-1.30
2023-02-28T00:08:53.589Z,-1.40
2023-02-28T00:11:23.129Z,-1.50
2023-02-28T00:13:51.239Z,-1.50
2023-02-28T00:16:20.580Z,-1.50
2023-02-28T00:18:49.454Z,-1.50
2023-02-28T00:21:18.326Z,-1.40
2023-02-28T00:23:46.385Z,-1.50
2023-02-28T00:26:14.519Z,-1.50
2023-02-28T00:28:43.884Z,-1.40
2023-02-28T00:31:11.990Z,-1.30
2023-02-28T00:33:40.104Z,-1.20
2023-02-28T00:36:10.218Z,-1.20
2023-02-28T00:38:38.991Z,-1.20
2023-02-28T00:41:08.112Z,-1.10
2023-02-28T00:43:37.837Z,-1.10
2023-02-28T00:46:08.287Z,-1.10
2023-02-28T00:48:36.498Z,-1.10
2023-02-28T00:51:04.814Z,-1.20
2023-02-28T00:53:33.490Z,-1.10
2023-02-28T00:56:01.554Z,-1.20
2023-02-28T00:58:29.657Z,-1.20
2023-02-28T01:00:57.731Z,-1.20
2023-02-28T01:03:27.069Z,-1.30
2023-02-28T01:05:55.038Z,-1.40
2023-02-28T01:08:23.244Z,-1.30
2023-02-28T01:10:51.441Z,-1.30
2023-02-28T01:13:19.557Z,-1.30
2023-02-28T01:15:52.005Z,-1.40
2023-02-28T01:18:20.200Z,-1.50
2023-02-28T01:20:49.687Z,-1.60
2023-02-28T01:23:17.664Z,-1.60
2023-02-28T01:25:53.030Z,-1.60
2023-02-28T01:28:39.521Z,-1.60
2023-02-28T01:31:13.834Z,-1.60
2023-02-28T01:33:42.092Z,-1.60
2023-02-28T01:36:13.249Z,-1.60
2023-02-28T01:38:41.492Z,-1.70
2023-02-28T01:41:10.522Z,-1.70
2023-02-28T01:43:57.853Z,-1.80
2023-02-28T01:46:26.030Z,-1.70
2023-02-28T01:48:58.807Z,-1.70
2023-02-28T01:51:32.697Z,-1.70
2023-02-28T01:54:03.580Z,-1.70
2023-02-28T01:56:36.240Z,-1.70
2023-02-28T01:59:05.360Z,-1.70
2023-02-28T02:01:33.662Z,-1.90
2023-02-28T02:04:04.307Z,-2.00
2023-02-28T02:06:39.121Z,-1.90
2023-02-28T02:09:07.204Z,-1.90
2023-02-28T02:11:37.865Z,-1.80
2023-02-28T02:14:21.732Z,-1.70
2023-02-28T02:17:02.167Z,-1.70
2023-02-28T02:20:20.829Z,-1.60
2023-02-28T02:23:23.187Z,-1.50
2023-02-28T02:25:57.260Z,-1.70
2023-02-28T02:28:57.667Z,-1.60
2023-02-28T02:32:04.276Z,-1.60
2023-02-28T02:35:05.538Z,-1.70
2023-02-28T02:37:59.337Z,-1.70
2023-02-28T02:40:33.712Z,-1.80
2023-02-28T02:43:05.443Z,-1.70
2023-02-28T02:45:38.150Z,-1.80
2023-02-28T02:48:10.812Z,-1.80
2023-02-28T02:50:45.142Z,-1.80
2023-02-28T02:53:16.199Z,-1.80
2023-02-28T02:55:53.962Z,-1.80
2023-02-28T02:58:25.348Z,-1.80
2023-02-28T03:00:56.961Z,-1.80
2023-02-28T03:03:30.717Z,-1.80
2023-02-28T03:06:02.358Z,-1.90
2023-02-28T03:08:32.175Z,-1.90
2023-02-28T03:11:03.852Z,-2.00
2023-02-28T03:14:11.857Z,-2.00
2023-02-28T03:16:56.275Z,-2.20
2023-02-28T03:19:35.994Z,-2.10
2023-02-28T03:22:21.875Z,-2.10
2023-02-28T03:24:57.742Z,-2.20
2023-02-28T03:27:30.282Z,-2.20
2023-02-28T03:30:03.909Z,-2.10
2023-02-28T03:32:57.484Z,-2.00
2023-02-28T03:35:50.330Z,-2.10
2023-02-28T03:38:43.151Z,-2.10
2023-02-28T03:41:17.558Z,-2.20
2023-02-28T03:43:51.352Z,-2.30
2023-02-28T03:46:23.061Z,-2.30
2023-02-28T03:48:57.707Z,-2.40
2023-02-28T03:51:29.216Z,-2.40
2023-02-28T03:54:04.201Z,-2.50
2023-02-28T03:56:39.518Z,-2.60
2023-02-28T03:59:15.123Z,-2.60
2023-02-28T04:01:45.927Z,-2.60
2023-02-28T04:04:15.385Z,-2.60
2023-02-28T04:06:44.279Z,-2.70
2023-02-28T04:09:16.017Z,-2.70
2023-02-28T04:11:46.371Z,-2.70
2023-02-28T04:14:14.495Z,-2.60
2023-02-28T04:16:43.592Z,-2.60
2023-02-28T04:19:14.105Z,-2.50
2023-02-28T04:21:44.526Z,-2.50
2023-02-28T04:24:15.963Z,-2.60
2023-02-28T04:26:45.584Z,-2.60
2023-02-28T04:29:15.014Z,-2.60
2023-02-28T04:31:43.198Z,-2.50
2023-02-28T04:34:11.337Z,-2.30
2023-02-28T04:36:39.459Z,-2.30
2023-02-28T04:39:07.517Z,-2.30
2023-02-28T04:41:36.992Z,-2.30
2023-02-28T04:44:05.298Z,-2.20
2023-02-28T04:46:36.605Z,-2.20
2023-02-28T04:49:04.896Z,-2.20
2023-02-28T04:51:32.992Z,-2.10
2023-02-28T04:54:01.034Z,-2.00
2023-02-28T04:56:28.990Z,-2.00
2023-02-28T04:58:58.436Z,-2.10
2023-02-28T05:01:28.841Z,-2.20
2023-02-28T05:03:59.297Z,-2.20
2023-02-28T05:06:28.544Z,-2.10
2023-02-28T05:08:57.471Z,-2.10
2023-02-28T05:11:28.476Z,-2.10
2023-02-28T05:13:58.424Z,-2.20
2023-02-28T05:16:26.394Z,-2.10
2023-02-28T05:18:55.352Z,-2.10
2023-02-28T05:21:28.297Z,-2.10
2023-02-28T05:23:58.018Z,-2.10
2023-02-28T05:26:26.808Z,-2.00
2023-02-28T05:28:55.691Z,-2.10
2023-02-28T05:31:25.961Z,-2.10
2023-02-28T05:33:54.248Z,-2.00
2023-02-28T05:36:22.621Z,-2.00
2023-02-28T05:38:51.388Z,-2.00
2023-02-28T05:41:21.395Z,-2.10
2023-02-28T05:43:49.858Z,-2.30
2023-02-28T05:46:18.300Z,-2.30
2023-02-28T05:48:49.253Z,-2.20
2023-02-28T05:51:17.512Z,-2.10
2023-02-28T05:53:45.573Z,-2.20
2023-02-28T05:56:14.156Z,-2.00
2023-02-28T05:58:42.168Z,-1.80
2023-02-28T06:01:32.489Z,-1.80
2023-02-28T06:04:02.798Z,-1.60
2023-02-28T06:06:31.539Z,-1.50
2023-02-28T06:08:59.756Z,-1.40
2023-02-28T06:11:29.017Z,-1.50
2023-02-28T06:13:57.963Z,-1.50
2023-02-28T06:16:26.581Z,-1.50
2023-02-28T06:18:56.966Z,-1.50
2023-02-28T06:21:28.527Z,-1.50
2023-02-28T06:23:58.082Z,-1.40
2023-02-28T06:26:26.475Z,-1.40
2023-02-28T06:28:54.759Z,-1.40
2023-02-28T06:31:23.587Z,-1.40
2023-02-28T06:33:52.012Z,-1.30
2023-02-28T06:36:20.873Z,-1.30
2023-02-28T06:38:55.498Z,-1.20
2023-02-28T06:41:25.404Z,-1.10
2023-02-28T06:43:54.014Z,-1.00
2023-02-28T06:46:22.585Z,-0.90
2023-02-28T06:48:50.807Z,-0.90
2023-02-28T06:51:21.354Z,-1.00
2023-02-28T06:53:50.734Z,-1.00
2023-02-28T06:56:38.012Z,-0.90
2023-02-28T06:59:06.541Z,-0.90
2023-02-28T07:01:34.752Z,-0.80
2023-02-28T07:04:02.952Z,-0.80
2023-02-28T07:06:30.944Z,-0.60
2023-02-28T07:09:01.385Z,-0.60
2023-02-28T07:11:30.857Z,-0.60
2023-02-28T07:14:00.035Z,-0.60
2023-02-28T07:16:28.161Z,-0.60
2023-02-28T07:18:56.997Z,-0.60
2023-02-28T07:21:25.300Z,-0.60
2023-02-28T07:23:53.777Z,-0.70
2023-02-28T07:26:23.279Z,-0.70
2023-02-28T07:28:51.826Z,-0.80
2023-02-28T07:31:20.508Z,-0.70
2023-02-28T07:33:48.628Z,-0.60
2023-02-28T07:36:19.661Z,-0.60
2023-02-28T07:38:51.072Z,-0.70
2023-02-28T07:41:20.913Z,-0.60
2023-02-28T07:43:50.694Z,-0.50
2023-02-28T07:46:21.284Z,-0.50
2023-02-28T07:48:49.465Z,-0.40
2023-02-28T07:51:17.710Z,-0.30
2023-02-28T07:53:45.714Z,-0.40
2023-02-28T07:56:13.882Z,-0.30
2023-02-28T07:58:44.093Z,-0.20
2023-02-28T08:01:14.409Z,-0.20
2023-02-28T08:03:43.130Z,-0.10
2023-02-28T08:06:19.233Z,-0.10
2023-02-28T08:08:47.762Z,-0.20
2023-02-28T08:11:17.259Z,-0.10
2023-02-28T08:13:45.810Z,0.00
2023-02-28T08:16:23.011Z,0.00
2023-02-28T08:18:51.944Z,0.10
2023-02-28T08:21:21.001Z,0.10
2023-02-28T08:23:49.619Z,0.10
2023-02-28T08:26:17.840Z,0.30
2023-02-28T08:28:46.378Z,0.20
2023-02-28T08:31:17.690Z,0.30
2023-02-28T08:33:46.703Z,0.40
2023-02-28T08:36:16.053Z,0.50
2023-02-28T08:38:44.211Z,0.40
2023-02-28T08:41:13.988Z,0.30
2023-02-28T08:43:42.758Z,0.30
2023-02-28T08:46:13.636Z,0.30
2023-02-28T08:48:43.423Z,0.40
2023-02-28T08:51:13.544Z,0.30
2023-02-28T08:53:42.469Z,0.30
2023-02-28T08:56:12.237Z,0.30
2023-02-28T08:58:40.811Z,0.40
2023-02-28T09:01:14.047Z,0.40
2023-02-28T09:03:44.824Z,0.30
2023-02-28T09:06:13.622Z,0.30
2023-02-28T09:08:42.284Z,0.40
2023-02-28T09:11:11.146Z,0.50
2023-02-28T09:13:39.954Z,0.60
2023-02-28T09:16:10.869Z,0.70
2023-02-28T09:18:39.546Z,0.70
2023-02-28T09:21:12.404Z,0.80
2023-02-28T09:23:40.353Z,0.90
2023-02-28T09:26:16.784Z,1.00
2023-02-28T09:28:46.198Z,1.10
2023-02-28T09:31:16.786Z,1.00
2023-02-28T09:33:45.261Z,1.00
2023-02-28T09:36:14.831Z,1.00
2023-02-28T09:38:43.646Z,1.00
2023-02-28T09:41:16.992Z,1.20
2023-02-28T09:43:49.558Z,1.20
2023-02-28T09:46:29.257Z,1.20
2023-02-28T09:48:58.898Z,1.20
2023-02-28T09:51:40.075Z,1.10
2023-02-28T09:54:08.312Z,1.20
2023-02-28T09:56:41.013Z,1.10
2023-02-28T09:59:19.733Z,1.10
2023-02-28T10:01:56.970Z,1.00
2023-02-28T10:04:40.980Z,1.00
2023-02-28T10:07:20.340Z,1.10
2023-02-28T10:09:52.278Z,1.10
2023-02-28T10:12:23.063Z,1.20
2023-02-28T10:14:54.963Z,1.40
2023-02-28T10:17:27.543Z,1.30
2023-02-28T10:20:00.467Z,1.40
2023-02-28T10:22:32.064Z,1.40
2023-02-28T10:25:05.994Z,1.30
2023-02-28T10:27:36.289Z,1.40
2023-02-28T10:30:05.496Z,1.40
2023-02-28T10:32:35.870Z,1.40
2023-02-28T10:35:17.094Z,1.40
2023-02-28T10:37:48.602Z,1.50
2023-02-28T10:40:31.093Z,1.50
2023-02-28T10:43:00.964Z,1.40
2023-02-28T10:45:31.122Z,1.50
2023-02-28T10:48:01.242Z,1.40
2023-02-28T10:50:44.478Z,1.50
2023-02-28T10:53:36.043Z,1.50
2023-02-28T10:56:22.207Z,1.60
2023-02-28T10:58:58.482Z,1.70
2023-02-28T11:01:36.436Z,1.80
2023-02-28T11:04:05.236Z,1.90
2023-02-28T11:06:36.246Z,1.90
2023-02-28T11:09:18.822Z,2.10
2023-02-28T11:11:48.127Z,2.10
2023-02-28T11:14:22.449Z,2.10
2023-02-28T11:16:52.246Z,2.20
2023-02-28T11:19:26.131Z,2.30
2023-02-28T11:21:58.402Z,2.20
2023-02-28T11:24:34.173Z,2.10
2023-02-28T11:27:02.637Z,2.10
2023-02-28T11:29:37.006Z,1.90
2023-02-28T11:32:14.423Z,1.90
2023-02-28T11:34:46.368Z,1.90
2023-02-28T11:37:21.380Z,1.80
2023-02-28T11:39:58.209Z,1.90
2023-02-28T11:42:52.934Z,1.90
2023-02-28T11:45:34.584Z,1.80
2023-02-28T11:48:16.608Z,1.90
2023-02-28T11:51:03.308Z,2.00
2023-02-28T11:54:05.243Z,2.20
2023-02-28T11:56:41.853Z,2.30
2023-02-28T11:59:33.906Z,2.40
2023-02-28T12:02:33.452Z,2.30
2023-02-28T12:05:37.672Z,2.50
2023-02-28T12:08:19.654Z,2.70
2023-02-28T12:11:05.195Z,2.70
2023-02-28T12:13:53.981Z,2.70
2023-02-28T12:16:56.072Z,2.70
2023-02-28T12:19:36.095Z,2.70
2023-02-28T12:22:34.090Z,2.60
2023-02-28T12:25:54.148Z,2.70
2023-02-28T12:28:36.696Z,2.70
2023-02-28T12:31:21.751Z,2.70
2023-02-28T12:34:04.247Z,2.70
2023-02-28T12:36:43.013Z,2.60
2023-02-28T12:39:23.977Z,2.70
2023-02-28T12:44:56.167Z,2.80
2023-02-28T12:47:26.705Z,2.80
2023-02-28T12:50:10.072Z,2.90
2023-02-28T12:53:02.815Z,3.00
2023-02-28T12:55:46.314Z,3.10
2023-02-28T12:58:46.007Z,3.30
2023-02-28T13:02:05.649Z,3.60
2023-02-28T13:05:38.352Z,3.80
2023-02-28T13:11:42.657Z,4.00
2023-02-28T13:14:34.096Z,4.00
2023-02-28T13:17:22.901Z,4.00
2023-02-28T13:20:09.388Z,4.00
2023-02-28T13:22:53.232Z,3.80
2023-02-28T13:26:11.997Z,3.80
2023-02-28T13:29:06.866Z,3.70
2023-02-28T13:32:23.726Z,3.60
2023-02-28T13:35:40.239Z,3.60
2023-02-28T13:38:28.821Z,3.60
2023-02-28T13:41:44.264Z,3.70
2023-02-28T13:44:25.394Z,3.80
2023-02-28T13:47:40.734Z,3.80
2023-02-28T13:50:36.893Z,3.70
2023-02-28T13:53:53.532Z,3.80
2023-02-28T13:56:58.904Z,3.70
2023-02-28T13:59:39.272Z,3.80
2023-02-28T14:02:42.121Z,3.80
2023-02-28T14:05:19.107Z,3.80
2023-02-28T14:07:52.838Z,3.80
2023-02-28T14:10:37.816Z,3.70
2023-02-28T14:13:25.930Z,3.70
2023-02-28T14:16:03.974Z,3.80
2023-02-28T14:19:00.203Z,3.80
2023-02-28T14:21:35.427Z,3.70
2023-02-28T14:24:49.744Z,3.60
2023-02-28T14:27:48.295Z,3.60
2023-02-28T14:30:57.962Z,3.50
2023-02-28T14:33:51.839Z,3.40
2023-02-28T14:36:37.226Z,3.30
2023-02-28T14:39:19.474Z,3.20
2023-02-28T14:41:55.956Z,3.20
2023-02-28T14:44:45.783Z,3.20
2023-02-28T14:47:34.205Z,3.10
2023-02-28T14:50:15.515Z,3.00
2023-02-28T14:52:57.255Z,3.00
2023-02-28T14:55:36.440Z,3.00
2023-02-28T14:58:28.505Z,2.90
2023-02-28T15:01:09.651Z,2.90
2023-02-28T15:03:48.840Z,2.80
2023-02-28T15:06:40.115Z,2.80
2023-02-28T15:09:24.999Z,2.90
2023-02-28T15:12:01.523Z,2.90
2023-02-28T15:14:31.498Z,2.90
2023-02-28T15:17:15.318Z,2.90
2023-02-28T15:19:57.310Z,2.90
2023-02-28T15:22:32.257Z,2.90
2023-02-28T15:25:07.004Z,2.90
2023-02-28T15:27:47.321Z,2.90
2023-02-28T15:30:35.479Z,2.90
2023-02-28T15:33:31.947Z,2.80
2023-02-28T15:36:31.075Z,2.90
2023-02-28T15:39:16.133Z,3.00
2023-02-28T15:42:04.470Z,3.20
2023-02-28T15:44:51.856Z,3.30
2023-02-28T15:47:34.691Z,3.40
2023-02-28T15:50:42.375Z,3.50
2023-02-28T15:53:45.791Z,3.60
2023-02-28T15:56:45.055Z,3.70
2023-02-28T16:00:02.236Z,3.70
2023-02-28T16:02:35.321Z,3.80
2023-02-28T16:05:55.299Z,3.80
2023-02-28T16:08:47.002Z,3.80
2023-02-28T16:11:27.231Z,3.80
2023-02-28T16:14:04.911Z,3.80
2023-02-28T16:16:53.963Z,3.80
2023-02-28T16:19:59.854Z,3.80
2023-02-28T16:22:37.263Z,3.80
2023-02-28T16:25:41.081Z,3.70
2023-02-28T16:28:23.240Z,3.70
2023-02-28T16:31:30.554Z,3.70
2023-02-28T16:34:14.146Z,3.70
2023-02-28T16:37:09.975Z,3.60
2023-02-28T16:39:51.946Z,3.60
2023-02-28T16:42:35.522Z,3.50
2023-02-28T16:45:24.016Z,3.50
2023-02-28T16:47:59.682Z,3.40
2023-02-28T16:50:40.281Z,3.40
2023-02-28T16:53:17.662Z,3.40
2023-02-28T16:55:56.601Z,3.30
2023-02-28T16:58:42.345Z,3.30
2023-02-28T17:01:26.930Z,3.20
2023-02-28T17:03:58.583Z,3.10
2023-02-28T17:06:35.182Z,3.10
2023-02-28T17:09:24.606Z,3.10
2023-02-28T17:12:09.286Z,3.00
2023-02-28T17:14:52.086Z,2.90
2023-02-28T17:17:33.784Z,2.80
2023-02-28T17:20:19.407Z,2.70
2023-02-28T17:22:55.512Z,2.70
2023-02-28T17:25:31.743Z,2.60
2023-02-28T17:28:12.724Z,2.60
2023-02-28T17:31:03.179Z,2.50
2023-02-28T17:33:40.253Z,2.50
2023-02-28T17:36:20.546Z,2.40
2023-02-28T17:39:18.391Z,2.40
2023-02-28T17:41:51.156Z,2.30
2023-02-28T17:44:22.853Z,2.30
2023-02-28T17:46:58.406Z,2.30
2023-02-28T17:49:40.307Z,2.20
2023-02-28T17:52:16.504Z,2.20
2023-02-28T17:54:47.062Z,2.10
2023-02-28T17:57:19.284Z,2.10
2023-02-28T17:59:55.531Z,2.10
2023-02-28T18:02:31.012Z,2.00
2023-02-28T18:05:07.237Z,1.90
2023-02-28T18:07:37.500Z,1.90
2023-02-28T18:10:22.431Z,1.90
2023-02-28T18:12:53.193Z,1.90
2023-02-28T18:15:28.574Z,1.80
2023-02-28T18:18:01.774Z,1.70
2023-02-28T18:20:32.208Z,1.80
2023-02-28T18:23:02.788Z,1.70
2023-02-28T18:25:33.835Z,1.70
2023-02-28T18:28:05.880Z,1.70
2023-02-28T18:30:40.904Z,1.70
2023-02-28T18:33:14.295Z,1.80
2023-02-28T18:35:46.177Z,1.80
2023-02-28T18:38:24.070Z,1.80
2023-02-28T18:41:06.062Z,1.80
2023-02-28T18:43:37.057Z,1.70
2023-02-28T18:46:06.658Z,1.60
2023-02-28T18:48:38.365Z,1.50
2023-02-28T18:51:13.362Z,1.50
2023-02-28T18:53:50.774Z,1.60
2023-02-28T18:56:32.257Z,1.70
2023-02-28T18:59:02.607Z,1.80
2023-02-28T19:01:36.669Z,1.80
2023-02-28T19:04:14.059Z,1.90
2023-02-28T19:06:48.478Z,1.90
2023-02-28T19:09:20.892Z,1.90
2023-02-28T19:11:50.214Z,1.90
2023-02-28T19:14:22.575Z,1.80
2023-02-28T19:16:52.551Z,1.70
2023-02-28T19:19:26.301Z,1.60
2023-02-28T19:21:57.494Z,1.50
2023-02-28T19:24:26.217Z,1.60
2023-02-28T19:26:55.366Z,1.50
2023-02-28T19:29:24.335Z,1.50
2023-02-28T19:31:55.154Z,1.50
2023-02-28T19:34:25.316Z,1.40
2023-02-28T19:36:59.096Z,1.40
2023-02-28T19:39:27.734Z,1.40
2023-02-28T19:41:56.285Z,1.50
2023-02-28T19:44:24.877Z,1.50
2023-02-28T19:46:54.587Z,1.50
2023-02-28T19:49:26.912Z,1.50
2023-02-28T19:51:58.780Z,1.40
2023-02-28T19:58:03.749Z,1.30
2023-02-28T20:00:32.603Z,1.30
2023-02-28T20:03:04.456Z,1.20
2023-02-28T20:05:35.253Z,1.20
2023-02-28T20:08:05.543Z,1.20
2023-02-28T20:10:37.072Z,1.10
2023-02-28T20:13:05.934Z,1.00
2023-02-28T20:15:34.897Z,0.90
2023-02-28T20:18:06.515Z,0.80
2023-02-28T20:20:39.681Z,0.70
2023-02-28T20:23:15.130Z,0.70
2023-02-28T20:25:45.176Z,0.60
2023-02-28T20:28:19.040Z,0.50
2023-02-28T20:30:49.145Z,0.50
2023-02-28T20:33:19.870Z,0.60
2023-02-28T20:35:55.354Z,0.60
2023-02-28T20:38:33.501Z,0.50
2023-02-28T20:41:10.368Z,0.40
2023-02-28T20:43:42.269Z,0.40
2023-02-28T20:46:14.343Z,0.40
2023-02-28T20:48:44.727Z,0.30
2023-02-28T20:51:20.473Z,0.30
2023-02-28T20:53:51.496Z,0.20
2023-02-28T20:56:25.812Z,0.20
2023-02-28T20:58:58.202Z,0.20
2023-02-28T21:01:31.600Z,0.20
2023-02-28T21:04:02.118Z,0.20
2023-02-28T21:06:37.226Z,0.20
2023-02-28T21:09:07.865Z,0.10
2023-02-28T21:11:37.816Z,0.20
2023-02-28T21:14:08.524Z,0.20
2023-02-28T21:16:38.227Z,0.30
2023-02-28T21:19:10.844Z,0.30
2023-02-28T21:21:43.487Z,0.40
2023-02-28T21:24:12.506Z,0.40
2023-02-28T21:26:41.941Z,0.40
2023-02-28T21:29:10.373Z,0.40
2023-02-28T21:31:39.597Z,0.40
2023-02-28T21:34:10.134Z,0.30
2023-02-28T21:36:41.854Z,0.30
2023-02-28T21:39:16.218Z,0.30
2023-02-28T21:41:44.759Z,0.40
2023-02-28T21:44:18.868Z,0.40
2023-02-28T21:46:51.117Z,0.40
2023-02-28T21:49:19.690Z,0.50
2023-02-28T21:51:49.496Z,0.50
2023-02-28T21:54:18.242Z,0.50
2023-02-28T21:56:48.719Z,0.60
2023-02-28T21:59:17.167Z,0.60
2023-02-28T22:01:46.581Z,0.60
2023-02-28T22:04:21.257Z,0.60
2023-02-28T22:06:53.770Z,0.70
2023-02-28T22:09:22.976Z,0.70
2023-02-28T22:11:53.567Z,0.80
2023-02-28T22:14:22.162Z,0.70
2023-02-28T22:16:54.896Z,0.80
2023-02-28T22:19:25.198Z,0.80
2023-02-28T22:21:59.520Z,0.80
2023-02-28T22:24:33.149Z,0.80
2023-02-28T22:27:01.623Z,0.80
2023-02-28T22:29:33.071Z,0.80
2023-02-28T22:32:01.732Z,0.80
2023-02-28T22:34:32.690Z,0.70
2023-02-28T22:37:02.854Z,0.70
2023-02-28T22:39:33.543Z,0.70
2023-02-28T22:42:01.984Z,0.70
2023-02-28T22:44:30.332Z,0.80
2023-02-28T22:47:01.163Z,0.80
2023-02-28T22:49:29.907Z,0.80
2023-02-28T22:51:58.033Z,0.80
2023-02-28T22:54:30.895Z,0.80
2023-02-28T22:56:59.206Z,0.80
2023-02-28T22:59:27.470Z,0.80
2023-02-28T23:01:58.685Z,0.80
2023-02-28T23:04:27.162Z,0.80
2023-02-28T23:06:55.557Z,0.80
2023-02-28T23:09:29.213Z,0.70
2023-02-28T23:12:01.802Z,0.70
2023-02-28T23:14:30.287Z,0.70
2023-02-28T23:17:01.250Z,0.70
2023-02-28T23:19:31.734Z,0.70
2023-02-28T23:22:02.782Z,0.80
2023-02-28T23:24:32.740Z,0.70
2023-02-28T23:27:04.535Z,0.70
2023-02-28T23:29:33.244Z,0.70
2023-02-28T23:32:05.687Z,0.60
2023-02-28T23:34:34.156Z,0.70
2023-02-28T23:37:05.485Z,0.70
2023-02-28T23:39:34.286Z,0.70
2023-02-28T23:42:04.157Z,0.70
2023-02-28T23:44:32.843Z,0.80
2023-02-28T23:47:03.150Z,0.70
2023-02-28T23:49:31.613Z,0.70
2023-02-28T23:52:00.157Z,0.70
2023-02-28T23:54:30.931Z,0.70
2023-02-28T23:56:59.595Z,0.70
2023-02-28T23:59:31.470Z,0.70
